Aérodrome :
LOGIN :

S'inscrire | Disclaimer

   EN    FR    IT 

 










Légende :    VFR   VFR Marginal   IFR   IFR Intensif   IFR Très Intensif
Visi : 
Plafond : 
>= 8 km
>= 3000ft
5 à 8 km
1000 à 3000 ft
1500m à 5 km
500 à 1000 ft
800 à 1500m
200 à 500 ft
< 800m
< 200 ft
Symboles :   Orages  Brouillard  Fortes neiges  Fortes précipitations  Vent > 20 kt
SIGMETs :   Divers  Orages  Givrage  Turbulence  Onde Orograph.  Cendres Volcan.






- Altitude de l'aérodrome : 1649 ft
- Code IATA : HHN


EDFH - Frankfurt-Hahn Rhineland-Palatinate

DERNIER METAR :
  • 221750Z 07004KT 1500 BR BKN002 M01/M01 Q1033

METARs EXPIRÉS :
  • 221720Z 06005KT 6000 SCT003 M03/M04 Q1033
  • 221650Z 03002KT 8000 BCFG NSC M04/M04 Q1033
  • 221620Z 01003KT 340V130 9999 3000N BCFG FEW002 M03/M04 Q1033
  • 221550Z 06004KT 020V090 CAVOK M03/M03 Q1032
  • 221520Z VRB02KT 9999 FEW002 M02/M03 Q1032

TAF TAF EDFH
Valide du 22 à 18h jusqu'au 23 à 18h UTC


221700Z 2218/2318 03004KT 8000 NSC
TEMPO 2218/2313 2500 BR BKN008
PROB30
TEMPO 2220/2311 0300 FZFG VV000
BECMG 2303/2306 10009KT
PROB30
TEMPO 2311/2318 BKN004



MET'MAP, la Météo Aéronautique d'un coup d'oeil ! - Copyright ORBIFLY Décembre 2007 - Disclaimer

ORBIFLY MET'MAP TEAM :

Programmation & Développement : Alexandra Zaïnal
Sur une idée originale de : Baudouin d'Aumeries
Assistance à la programmation : Marc-Olivier Méhu
Soutien technique & logistique : Manuel Goepfert

Contact : metmap@orbifly.com




SOURCES & CREDITS :

   NOAA